Time;durP1;ratioP1;P1;durP2;ratioP2;P2;SDS_P1;SDS_P2;PMS_P1;PMS_P2;Temp;Humidity;BMP_temperature;BMP_pressure;BME280_temperature;BME280_humidity;BME280_pressure;Samples;Min_cycle;Max_cycle;Signal;HPM_P1;HPM_P2
2023/02/12 00:00:26;;;;;;;11.10;6.72;;;;;;;7.17;100.00;102818.38;5013546;28;20206;-66
2023/02/12 00:02:56;;;;;;;16.95;8.45;;;;;;;7.25;100.00;102821.28;4981282;28;20202;-67
2023/02/12 00:05:37;;;;;;;10.20;7.22;;;;;;;7.22;100.00;102811.63;4979767;28;20199;-66
2023/02/12 00:08:08;;;;;;;12.90;8.48;;;;;;;7.15;100.00;102815.84;5011703;28;20234;-66
2023/02/12 00:10:41;;;;;;;11.57;7.85;;;;;;;7.16;100.00;102822.09;4978432;28;20261;-66
2023/02/12 00:13:12;;;;;;;16.27;8.43;;;;;;;7.08;100.00;102830.81;5007910;28;20202;-66
2023/02/12 00:15:44;;;;;;;13.75;6.50;;;;;;;7.13;100.00;102833.09;5022726;28;20285;-66
2023/02/12 00:18:14;;;;;;;16.55;8.20;;;;;;;7.11;100.00;102835.09;4998614;28;20187;-66
2023/02/12 00:20:45;;;;;;;16.55;7.72;;;;;;;7.04;100.00;102840.13;5018959;28;20557;-66
2023/02/12 00:23:15;;;;;;;13.98;7.30;;;;;;;7.02;100.00;102834.03;5018166;28;20591;-67
2023/02/12 00:25:46;;;;;;;17.70;7.22;;;;;;;7.05;100.00;102836.47;4999690;28;20704;-67
2023/02/12 00:28:16;;;;;;;12.10;6.90;;;;;;;7.05;100.00;102836.47;5018556;28;20194;-66
2023/02/12 00:30:48;;;;;;;14.68;6.80;;;;;;;7.00;100.00;102838.69;5016717;28;20664;-67
2023/02/12 00:33:19;;;;;;;13.88;8.25;;;;;;;6.99;100.00;102842.38;5015857;28;20228;-67
2023/02/12 00:35:56;;;;;;;18.83;7.28;;;;;;;7.06;100.00;102838.19;5010266;28;20679;-66
2023/02/12 00:38:27;;;;;;;11.43;6.28;;;;;;;7.02;100.00;102836.72;5013347;28;20261;-66
2023/02/12 00:41:06;;;;;;;10.27;6.45;;;;;;;6.85;100.00;102842.69;5011763;28;20233;-66
2023/02/12 00:43:37;;;;;;;18.77;6.45;;;;;;;6.89;100.00;102846.84;5000443;28;20218;-67
2023/02/12 00:46:09;;;;;;;21.90;6.65;;;;;;;6.94;100.00;102850.00;5010570;28;20234;-67
2023/02/12 00:48:39;;;;;;;18.40;7.40;;;;;;;6.87;100.00;102859.59;4987110;28;20195;-66
2023/02/12 00:51:09;;;;;;;24.90;6.72;;;;;;;6.92;100.00;102857.34;4996493;28;20286;-67
2023/02/12 00:53:41;;;;;;;12.65;6.88;;;;;;;6.86;100.00;102861.41;4984514;28;20199;-68
2023/02/12 00:56:11;;;;;;;9.40;5.88;;;;;;;6.89;100.00;102862.97;5014480;28;20223;-68
2023/02/12 00:58:42;;;;;;;19.67;7.53;;;;;;;6.96;100.00;102864.19;5017537;28;20210;-66
2023/02/12 01:01:14;;;;;;;17.25;7.82;;;;;;;6.91;100.00;102855.66;5024323;28;20213;-67
2023/02/12 01:03:44;;;;;;;21.88;6.43;;;;;;;6.84;100.00;102865.22;5014299;28;20206;-67
2023/02/12 01:06:16;;;;;;;17.77;7.70;;;;;;;6.87;100.00;102873.03;5010442;28;20318;-67
2023/02/12 01:08:52;;;;;;;18.25;5.40;;;;;;;6.92;100.00;102873.50;5012149;28;20232;-66
2023/02/12 01:11:22;;;;;;;12.55;6.55;;;;;;;7.01;100.00;102867.34;5010469;28;20257;-66
2023/02/12 01:13:55;;;;;;;20.20;6.68;;;;;;;6.93;100.00;102864.41;5018675;28;20225;-68
2023/02/12 01:16:26;;;;;;;14.95;5.95;;;;;;;6.91;100.00;102869.09;5015243;28;20333;-64
2023/02/12 01:19:01;;;;;;;12.23;5.75;;;;;;;6.86;100.00;102874.03;5020310;28;20289;-67
2023/02/12 01:21:33;;;;;;;13.52;5.47;;;;;;;6.85;100.00;102880.38;4979496;28;20202;-66
2023/02/12 01:24:04;;;;;;;18.85;6.65;;;;;;;6.84;100.00;102882.22;5015275;28;20289;-68
2023/02/12 01:26:34;;;;;;;12.00;4.70;;;;;;;6.67;100.00;102880.09;5010814;28;20692;-67
2023/02/12 01:29:06;;;;;;;16.45;5.15;;;;;;;6.71;100.00;102880.69;5011313;28;20207;-67
2023/02/12 01:31:41;;;;;;;15.50;5.80;;;;;;;6.79;100.00;102879.06;5009858;28;20202;-67
2023/02/12 01:34:12;;;;;;;14.25;5.68;;;;;;;6.67;100.00;102884.63;5002448;28;20187;-67
2023/02/12 01:36:41;;;;;;;8.88;5.05;;;;;;;6.67;100.00;102887.31;5009871;28;20262;-67
2023/02/12 01:39:13;;;;;;;16.15;6.63;;;;;;;6.75;100.00;102890.22;5005353;28;20194;-66
2023/02/12 01:41:45;;;;;;;10.45;5.15;;;;;;;6.75;100.00;102891.06;4990032;28;20297;-66
2023/02/12 01:44:19;;;;;;;14.02;6.30;;;;;;;6.77;100.00;102901.72;5012751;28;20198;-67
2023/02/12 01:46:55;;;;;;;15.25;6.32;;;;;;;6.76;100.00;102905.38;5025496;28;20293;-67
2023/02/12 01:49:31;;;;;;;15.18;5.80;;;;;;;6.66;100.00;102904.44;5021668;28;20233;-67
2023/02/12 01:52:05;;;;;;;16.60;5.75;;;;;;;6.73;100.00;102900.28;4997497;28;20171;-65
2023/02/12 01:54:37;;;;;;;16.83;5.55;;;;;;;6.71;100.00;102908.47;5016661;28;20228;-67
2023/02/12 01:57:09;;;;;;;13.40;7.40;;;;;;;6.85;100.00;102912.69;5016743;28;20218;-67
2023/02/12 01:59:43;;;;;;;13.80;6.10;;;;;;;6.83;100.00;102912.78;4983411;28;20217;-67
2023/02/12 02:02:17;;;;;;;21.45;6.22;;;;;;;6.84;100.00;102909.13;5011431;28;20285;-67
2023/02/12 02:04:53;;;;;;;19.00;5.10;;;;;;;6.87;100.00;102913.41;5001902;28;20693;-67
2023/02/12 02:07:25;;;;;;;19.77;6.50;;;;;;;6.84;100.00;102919.91;5003801;28;20256;-66
2023/02/12 02:09:58;;;;;;;26.48;8.02;;;;;;;6.87;100.00;102921.50;5016577;28;20229;-66
2023/02/12 02:15:19;;;;;;;13.20;5.57;;;;;;;6.95;100.00;102927.06;5013272;28;20199;-67
2023/02/12 02:17:59;;;;;;;12.77;4.80;;;;;;;6.87;100.00;102926.88;5018619;28;20250;-66
2023/02/12 02:21:06;;;;;;;11.20;4.82;;;;;;;6.98;100.00;102916.03;5012194;28;20621;-68
2023/02/12 02:24:08;;;;;;;14.88;5.90;;;;;;;6.93;100.00;102916.44;4969655;28;20225;-66
2023/02/12 02:27:01;;;;;;;22.90;5.78;;;;;;;6.91;100.00;102921.09;5014850;28;20631;-68
2023/02/12 02:30:06;;;;;;;21.45;5.93;;;;;;;6.87;100.00;102913.41;5014182;28;20568;-67
2023/02/12 02:32:43;;;;;;;18.00;5.85;;;;;;;6.89;100.00;102919.50;4979025;28;20199;-67
2023/02/12 02:35:19;;;;;;;13.23;5.00;;;;;;;6.83;100.00;102920.00;4995583;28;20617;-66
2023/02/12 02:37:57;;;;;;;8.32;4.53;;;;;;;6.76;100.00;102910.75;4991230;28;20217;-68
2023/02/12 02:40:38;;;;;;;12.20;4.72;;;;;;;6.81;100.00;102920.16;4973777;28;20207;-66
2023/02/12 02:43:15;;;;;;;15.27;5.30;;;;;;;6.74;100.00;102918.09;5003851;28;20224;-67
2023/02/12 02:45:51;;;;;;;13.93;6.57;;;;;;;6.69;100.00;102914.94;5009465;28;20208;-66
2023/02/12 02:48:26;;;;;;;13.75;4.70;;;;;;;6.64;100.00;102918.00;5000189;28;20191;-66
2023/02/12 02:51:02;;;;;;;9.73;4.00;;;;;;;6.54;100.00;102917.91;5014110;28;20281;-66
2023/02/12 02:53:37;;;;;;;15.85;4.82;;;;;;;6.68;100.00;102918.63;4984562;28;20198;-66
2023/02/12 02:56:13;;;;;;;14.60;4.95;;;;;;;6.73;100.00;102925.31;4994543;28;20233;-67
2023/02/12 02:58:45;;;;;;;16.20;5.75;;;;;;;6.71;100.00;102926.44;4983282;28;20615;-66
2023/02/12 03:01:22;;;;;;;15.35;5.57;;;;;;;6.65;100.00;102935.00;5009362;28;20222;-67
2023/02/12 03:04:00;;;;;;;18.85;6.90;;;;;;;6.62;100.00;102940.66;5019981;28;20201;-66
2023/02/12 03:06:38;;;;;;;13.45;4.75;;;;;;;6.61;100.00;102938.94;5008325;28;20224;-63
2023/02/12 03:09:17;;;;;;;15.27;5.63;;;;;;;6.74;100.00;102940.47;5017257;28;20206;-67
2023/02/12 03:11:49;;;;;;;16.23;6.13;;;;;;;6.71;100.00;102945.28;5013678;28;20680;-66
2023/02/12 03:14:26;;;;;;;19.63;5.60;;;;;;;6.65;100.00;102945.78;5015835;28;20253;-67
2023/02/12 03:17:02;;;;;;;19.85;5.55;;;;;;;6.65;100.00;102951.16;5011772;28;20218;-66
2023/02/12 03:19:37;;;;;;;21.55;5.78;;;;;;;6.72;100.00;102947.84;4986569;28;20862;-65
2023/02/12 03:22:08;;;;;;;10.50;4.80;;;;;;;6.72;100.00;102949.69;4998411;28;20646;-67
2023/02/12 03:24:43;;;;;;;10.73;5.13;;;;;;;6.79;100.00;102964.31;4983499;28;20201;-67
2023/02/12 03:27:18;;;;;;;11.20;4.30;;;;;;;6.76;100.00;102953.81;5012395;28;20229;-67
2023/02/12 03:29:48;;;;;;;12.40;4.18;;;;;;;6.73;100.00;102960.28;5002583;28;20182;-67
2023/02/12 03:32:39;;;;;;;7.97;6.70;;;;;;;6.94;100.00;102966.59;4996939;28;20190;-66
2023/02/12 03:35:22;;;;;;;17.20;5.82;;;;;;;6.97;100.00;102962.81;4999148;28;20213;-67
2023/02/12 03:38:01;;;;;;;14.63;6.05;;;;;;;6.90;100.00;102969.69;5007477;28;20232;-67
2023/02/12 03:40:37;;;;;;;19.27;5.60;;;;;;;6.92;100.00;102960.47;5013834;28;20199;-65
2023/02/12 03:43:17;;;;;;;23.95;7.55;;;;;;;6.84;100.00;102962.97;5022825;28;20218;-67
2023/02/12 03:45:54;;;;;;;15.73;5.00;;;;;;;6.78;100.00;102958.06;4998923;28;20197;-66
2023/02/12 03:48:33;;;;;;;13.90;5.32;;;;;;;6.66;100.00;102958.25;5014816;28;20645;-66
2023/02/12 03:51:12;;;;;;;16.50;5.82;;;;;;;6.65;100.00;102957.41;5016028;28;20218;-67
2023/02/12 03:53:43;;;;;;;18.48;6.38;;;;;;;6.67;100.00;102970.72;5018110;28;20289;-67
2023/02/12 03:56:18;;;;;;;20.98;6.15;;;;;;;6.86;100.00;102976.28;4986756;28;20603;-67
2023/02/12 03:58:49;;;;;;;12.98;5.00;;;;;;;6.91;100.00;102982.16;5005392;28;20202;-66
2023/02/12 04:01:20;;;;;;;24.38;6.18;;;;;;;6.86;100.00;102981.69;5011940;28;20571;-67
2023/02/12 04:03:51;;;;;;;20.00;6.47;;;;;;;6.77;100.00;102980.63;5007393;28;20198;-66
2023/02/12 04:06:24;;;;;;;17.90;5.70;;;;;;;6.76;100.00;102992.34;4991800;28;20317;-66
2023/02/12 04:08:57;;;;;;;14.57;5.00;;;;;;;6.84;100.00;102997.09;5012218;28;20245;-67
2023/02/12 04:11:34;;;;;;;12.05;6.63;;;;;;;6.87;100.00;102994.16;4989646;28;20632;-65
2023/02/12 04:14:20;;;;;;;14.18;5.47;;;;;;;6.99;100.00;102987.75;4991582;28;20191;-67
2023/02/12 04:16:58;;;;;;;18.20;6.53;;;;;;;7.07;100.00;102990.63;5005715;28;20249;-67
2023/02/12 04:19:40;;;;;;;20.42;5.60;;;;;;;7.08;100.00;103000.44;4996798;28;20241;-66
2023/02/12 04:22:22;;;;;;;17.17;6.05;;;;;;;7.08;100.00;103003.13;5019635;28;20595;-68
2023/02/12 04:25:03;;;;;;;15.48;5.50;;;;;;;6.96;100.00;102999.63;5013611;28;20691;-68
2023/02/12 04:27:43;;;;;;;14.40;4.63;;;;;;;6.84;100.00;102999.78;5019059;28;20585;-67
2023/02/12 04:30:21;;;;;;;9.75;5.68;;;;;;;6.91;100.00;102995.63;4978123;28;20225;-66
2023/02/12 04:32:56;;;;;;;15.30;5.75;;;;;;;6.87;100.00;103002.25;5016163;28;20195;-67
2023/02/12 04:35:35;;;;;;;30.48;7.80;;;;;;;6.77;100.00;103003.97;5002288;28;20209;-67
2023/02/12 04:38:11;;;;;;;17.95;6.93;;;;;;;6.71;100.00;103001.78;4996441;28;20198;-67
2023/02/12 04:40:43;;;;;;;9.82;3.95;;;;;;;6.76;100.00;103002.25;5013550;28;20202;-67
2023/02/12 04:43:13;;;;;;;14.48;4.72;;;;;;;6.72;100.00;103003.50;5013672;28;20651;-67
2023/02/12 04:45:43;;;;;;;11.15;4.75;;;;;;;6.61;100.00;102998.13;5018136;28;20290;-66
2023/02/12 04:48:17;;;;;;;15.23;5.53;;;;;;;6.57;100.00;102997.53;4985948;28;20203;-67
2023/02/12 04:50:49;;;;;;;9.07;4.70;;;;;;;6.74;100.00;102993.44;4995962;28;20201;-66
2023/02/12 04:53:19;;;;;;;17.27;6.57;;;;;;;6.73;100.00;102999.84;5014562;28;20197;-67
2023/02/12 04:55:51;;;;;;;15.23;5.43;;;;;;;6.92;100.00;102997.31;5012088;28;20297;-67
2023/02/12 04:58:21;;;;;;;16.85;6.40;;;;;;;7.05;100.00;103003.38;5005237;28;20750;-66
2023/02/12 05:00:51;;;;;;;23.98;6.05;;;;;;;7.00;100.00;102997.53;5014637;28;20194;-65
2023/02/12 05:03:23;;;;;;;17.92;5.93;;;;;;;6.86;100.00;102992.44;4964729;28;20214;-67
2023/02/12 05:05:54;;;;;;;13.30;5.05;;;;;;;7.05;100.00;102998.00;4984306;28;20289;-67
2023/02/12 05:08:25;;;;;;;15.43;5.32;;;;;;;7.22;100.00;103002.81;5012161;28;20210;-66
2023/02/12 05:10:55;;;;;;;12.77;6.10;;;;;;;7.29;100.00;103006.72;4995118;28;20570;-65
2023/02/12 05:13:25;;;;;;;15.07;5.78;;;;;;;7.27;100.00;103003.28;4995137;28;20195;-67
2023/02/12 05:15:55;;;;;;;14.85;4.88;;;;;;;7.09;100.00;102998.59;4985373;28;20219;-65
2023/02/12 05:18:25;;;;;;;14.25;6.72;;;;;;;7.11;100.00;103007.41;4995237;28;20597;-67
2023/02/12 05:21:02;;;;;;;13.50;4.18;;;;;;;7.11;100.00;103010.97;5010141;28;20199;-67
2023/02/12 05:23:35;;;;;;;14.48;5.80;;;;;;;7.14;100.00;103018.78;5002982;28;20202;-67
2023/02/12 05:26:08;;;;;;;12.77;5.95;;;;;;;7.10;100.00;103014.63;4995001;28;20219;-66
2023/02/12 05:29:28;;;;;;;16.13;5.00;;;;;;;7.23;100.00;103007.22;5010275;28;20197;-66
2023/02/12 05:31:58;;;;;;;11.00;5.50;;;;;;;7.01;100.00;103010.03;5010046;28;20213;-66
2023/02/12 05:34:29;;;;;;;13.68;5.28;;;;;;;6.97;100.00;103012.09;4996673;28;20249;-66
2023/02/12 05:37:01;;;;;;;9.38;4.53;;;;;;;6.99;100.00;103010.13;5007752;28;20217;-67
2023/02/12 05:39:32;;;;;;;14.57;5.65;;;;;;;7.11;100.00;103020.88;5003021;28;20195;-66
2023/02/12 05:42:02;;;;;;;11.82;5.32;;;;;;;7.06;100.00;103026.66;5016269;28;20191;-67
2023/02/12 05:44:32;;;;;;;8.75;4.45;;;;;;;7.11;100.00;103028.97;5009773;28;20210;-67
2023/02/12 05:47:05;;;;;;;14.90;5.53;;;;;;;7.11;100.00;103024.44;5017336;28;20218;-66
2023/02/12 05:49:35;;;;;;;12.02;5.60;;;;;;;7.07;100.00;103027.50;5017898;28;20202;-66
2023/02/12 05:52:10;;;;;;;14.65;6.50;;;;;;;7.12;100.00;103030.63;5005096;28;20215;-67
2023/02/12 05:54:40;;;;;;;19.77;5.75;;;;;;;7.06;100.00;103026.66;4996273;28;20268;-66
2023/02/12 05:57:10;;;;;;;15.93;6.65;;;;;;;7.03;100.00;103026.88;5016724;28;20304;-67
2023/02/12 05:59:41;;;;;;;10.88;4.82;;;;;;;7.14;100.00;103024.16;5009827;28;20206;-67
2023/02/12 06:02:12;;;;;;;8.20;4.78;;;;;;;7.16;100.00;103026.75;5013810;28;20199;-66
2023/02/12 06:04:42;;;;;;;14.43;5.45;;;;;;;7.13;100.00;103033.22;5009287;28;20226;-66
2023/02/12 06:07:13;;;;;;;14.00;5.97;;;;;;;7.13;100.00;103035.91;4976411;28;20304;-66
2023/02/12 06:09:43;;;;;;;14.43;5.43;;;;;;;7.16;100.00;103038.38;5009685;28;20297;-68
2023/02/12 06:12:16;;;;;;;17.45;5.90;;;;;;;7.10;100.00;103033.47;4994877;28;20209;-66
2023/02/12 06:14:46;;;;;;;22.25;6.45;;;;;;;6.97;100.00;103038.19;5009876;28;20571;-66
2023/02/12 06:17:17;;;;;;;13.13;5.70;;;;;;;6.86;100.00;103040.91;5010478;28;20214;-66
2023/02/12 06:19:46;;;;;;;11.05;5.25;;;;;;;6.85;100.00;103045.41;5021873;28;20209;-66
2023/02/12 06:22:19;;;;;;;12.63;5.07;;;;;;;6.86;100.00;103055.22;5003479;28;20191;-66
2023/02/12 06:24:49;;;;;;;14.02;6.65;;;;;;;6.78;100.00;103054.09;4980479;28;20297;-67
2023/02/12 06:27:20;;;;;;;14.27;5.97;;;;;;;6.76;100.00;103069.53;4996221;28;20214;-66
2023/02/12 06:29:51;;;;;;;10.13;5.30;;;;;;;6.80;100.00;103068.31;5012754;28;20191;-66
2023/02/12 06:32:21;;;;;;;26.83;6.90;;;;;;;6.79;100.00;103071.97;5010796;28;20735;-66
2023/02/12 06:34:51;;;;;;;19.90;6.30;;;;;;;6.79;100.00;103072.81;4996122;28;20270;-67
2023/02/12 06:37:22;;;;;;;14.75;6.57;;;;;;;6.82;100.00;103079.81;4996991;28;20696;-68
2023/02/12 06:39:54;;;;;;;19.65;6.25;;;;;;;6.84;100.00;103086.78;4986788;28;20289;-67
2023/02/12 06:42:24;;;;;;;11.90;7.57;;;;;;;6.92;100.00;103091.53;5010079;28;20349;-67
2023/02/12 06:44:55;;;;;;;16.23;6.18;;;;;;;6.88;100.00;103092.75;4979671;28;20645;-66
2023/02/12 06:47:27;;;;;;;26.25;5.88;;;;;;;6.77;100.00;103090.09;4998887;28;20218;-66
2023/02/12 06:49:58;;;;;;;15.93;5.35;;;;;;;6.93;100.00;103090.53;5023384;28;20198;-66
2023/02/12 06:52:30;;;;;;;14.30;4.90;;;;;;;6.76;100.00;103088.38;4975459;28;20202;-67
2023/02/12 06:55:00;;;;;;;16.50;6.85;;;;;;;6.88;100.00;103092.75;4997794;28;20225;-67
2023/02/12 06:57:31;;;;;;;19.02;6.13;;;;;;;6.76;100.00;103097.31;4997470;28;20306;-67
2023/02/12 07:00:01;;;;;;;12.00;5.32;;;;;;;6.87;100.00;103104.53;4980629;28;20636;-66
2023/02/12 07:02:32;;;;;;;8.75;4.55;;;;;;;6.72;100.00;103108.44;5008525;28;20190;-67
2023/02/12 07:05:02;;;;;;;16.98;6.13;;;;;;;6.84;100.00;103105.59;5007328;28;20342;-67
2023/02/12 07:07:33;;;;;;;21.08;7.32;;;;;;;6.86;100.00;103105.50;4993333;28;20217;-67
2023/02/12 07:10:04;;;;;;;16.20;7.65;;;;;;;6.92;100.00;103108.53;4975961;28;20209;-67
2023/02/12 07:12:34;;;;;;;23.00;7.15;;;;;;;6.85;100.00;103114.53;5014854;28;20198;-67
2023/02/12 07:15:05;;;;;;;21.52;7.20;;;;;;;6.87;100.00;103107.22;4976337;28;20191;-65
2023/02/12 07:17:35;;;;;;;19.88;6.55;;;;;;;6.96;100.00;103111.84;5010021;28;20226;-67
2023/02/12 07:20:06;;;;;;;14.05;5.65;;;;;;;6.99;100.00;103122.34;5003432;28;20569;-68
2023/02/12 07:22:38;;;;;;;15.57;5.68;;;;;;;7.03;100.00;103115.72;4995019;28;20194;-66
2023/02/12 07:25:09;;;;;;;15.27;5.97;;;;;;;7.00;100.00;103113.31;5007563;28;20210;-66
2023/02/12 07:27:40;;;;;;;10.30;4.82;;;;;;;7.02;100.00;103119.41;5022294;28;20225;-66
2023/02/12 07:30:11;;;;;;;19.17;6.68;;;;;;;6.97;100.00;103118.94;5001681;28;20244;-66
2023/02/12 07:32:41;;;;;;;20.50;6.47;;;;;;;7.05;100.00;103119.16;4987706;28;20245;-67
2023/02/12 07:35:11;;;;;;;20.60;5.78;;;;;;;7.23;100.00;103128.44;5001658;28;20194;-66
2023/02/12 07:37:43;;;;;;;11.57;6.57;;;;;;;7.16;100.00;103129.06;5004360;28;20222;-67
2023/02/12 07:40:14;;;;;;;18.67;6.03;;;;;;;7.24;100.00;103127.44;5026447;28;20204;-66
2023/02/12 07:42:44;;;;;;;16.33;5.45;;;;;;;7.13;100.00;103132.00;5015281;28;20563;-67
2023/02/12 07:45:14;;;;;;;13.30;5.18;;;;;;;7.24;100.00;103130.13;5020906;28;20218;-67
2023/02/12 07:47:44;;;;;;;16.38;5.95;;;;;;;7.24;100.00;103126.59;5027773;28;20234;-65
2023/02/12 07:50:15;;;;;;;12.73;6.18;;;;;;;7.23;100.00;103130.25;5026003;28;20211;-66
2023/02/12 07:52:49;;;;;;;17.98;5.60;;;;;;;7.29;100.00;103132.47;5017623;28;20206;-66
2023/02/12 07:55:19;;;;;;;16.15;5.40;;;;;;;7.38;100.00;103140.63;5008949;28;20217;-65
2023/02/12 07:57:50;;;;;;;12.88;5.22;;;;;;;7.50;100.00;103136.06;4999722;28;20264;-67
2023/02/12 08:00:23;;;;;;;9.45;5.53;;;;;;;7.45;100.00;103140.13;5011771;28;20217;-66
2023/02/12 08:02:54;;;;;;;18.85;6.80;;;;;;;7.56;100.00;103151.72;4982813;28;20194;-66
2023/02/12 08:05:24;;;;;;;19.20;5.03;;;;;;;7.74;99.96;103149.34;5020752;28;20221;-66
2023/02/12 08:07:57;;;;;;;13.25;5.65;;;;;;;7.86;98.12;103148.28;5016084;28;20222;-66
2023/02/12 08:10:27;;;;;;;17.77;4.97;;;;;;;7.81;98.71;103147.81;5026784;28;20210;-67
2023/02/12 08:13:00;;;;;;;15.40;5.10;;;;;;;7.68;98.79;103152.53;5017536;28;20285;-66
2023/02/12 08:15:30;;;;;;;12.85;5.00;;;;;;;7.62;99.29;103147.66;4981588;28;20638;-66
2023/02/12 08:18:01;;;;;;;17.05;5.47;;;;;;;7.62;99.28;103153.91;5017797;28;20556;-66
2023/02/12 08:20:35;;;;;;;18.52;5.93;;;;;;;7.70;98.89;103156.78;5004692;28;20560;-67
2023/02/12 08:23:07;;;;;;;20.30;8.82;;;;;;;7.70;98.39;103161.31;5014325;28;20297;-65
2023/02/12 08:25:37;;;;;;;12.15;6.10;;;;;;;7.86;96.94;103168.00;5014228;28;20219;-67
2023/02/12 08:28:07;;;;;;;9.13;5.28;;;;;;;7.95;96.44;103160.97;5005626;28;20559;-67
2023/02/12 08:30:38;;;;;;;15.15;5.18;;;;;;;8.12;95.58;103173.03;5032939;28;20231;-66
2023/02/12 08:33:07;;;;;;;13.20;5.85;;;;;;;7.97;95.76;103169.81;5016321;28;20202;-67
2023/02/12 08:35:38;;;;;;;11.70;4.20;;;;;;;8.23;94.92;103165.72;4978696;28;20186;-66
2023/02/12 08:38:10;;;;;;;24.00;5.20;;;;;;;8.29;94.10;103181.41;5011150;28;20201;-66
2023/02/12 08:40:41;;;;;;;17.25;6.35;;;;;;;8.15;94.55;103178.16;4996334;28;20614;-66
2023/02/12 08:43:14;;;;;;;12.48;4.20;;;;;;;8.12;94.24;103181.13;5011442;28;20202;-67
2023/02/12 08:45:43;;;;;;;16.08;5.68;;;;;;;8.12;94.23;103187.38;5013796;28;20218;-66
2023/02/12 08:48:13;;;;;;;15.18;5.50;;;;;;;8.21;94.23;103196.53;5018826;28;20272;-66
2023/02/12 08:50:43;;;;;;;15.25;5.65;;;;;;;8.31;93.51;103194.78;5004684;28;20182;-67
2023/02/12 08:53:15;;;;;;;11.07;4.30;;;;;;;8.11;93.99;103193.75;5014949;28;20201;-66
2023/02/12 08:55:49;;;;;;;14.32;5.20;;;;;;;8.14;94.10;103204.28;5004652;28;20195;-66
2023/02/12 08:58:21;;;;;;;14.25;3.88;;;;;;;8.06;94.49;103201.38;5014446;28;20279;-67
2023/02/12 09:00:51;;;;;;;12.15;5.25;;;;;;;8.14;93.94;103198.88;5022785;28;20203;-66
2023/02/12 09:03:22;;;;;;;12.93;5.53;;;;;;;8.17;94.60;103204.03;4988111;28;20214;-66
2023/02/12 09:05:51;;;;;;;13.75;4.55;;;;;;;8.09;94.18;103205.66;5014776;28;20692;-67
2023/02/12 09:08:24;;;;;;;9.45;3.72;;;;;;;8.23;94.12;103214.28;4997248;28;20285;-68
2023/02/12 09:10:53;;;;;;;9.07;4.82;;;;;;;8.35;94.31;103206.16;5026226;28;20218;-68
2023/02/12 09:13:25;;;;;;;10.98;5.50;;;;;;;8.34;93.54;103209.84;5021490;28;20215;-68
2023/02/12 09:15:55;;;;;;;14.77;6.75;;;;;;;8.42;94.16;103212.75;5022046;28;20223;-67
2023/02/12 09:18:28;;;;;;;13.02;4.50;;;;;;;8.28;94.53;103217.44;4980256;28;20217;-66
2023/02/12 09:21:02;;;;;;;21.80;5.57;;;;;;;8.43;95.62;103215.31;5023950;28;20221;-67
2023/02/12 09:23:34;;;;;;;15.45;4.78;;;;;;;8.55;93.90;103221.50;5021140;28;20194;-67
2023/02/12 09:26:06;;;;;;;16.25;5.90;;;;;;;8.74;94.44;103227.00;4998475;28;20238;-67
2023/02/12 09:28:37;;;;;;;14.80;4.80;;;;;;;9.07;92.08;103221.34;4991335;28;20322;-68
2023/02/12 09:31:07;;;;;;;10.55;4.97;;;;;;;9.18;91.42;103228.50;4993954;28;20439;-66
2023/02/12 09:33:38;;;;;;;12.88;5.00;;;;;;;9.15;90.40;103232.31;4996717;28;20271;-66
2023/02/12 09:36:10;;;;;;;14.13;5.45;;;;;;;9.28;90.79;103231.22;5010349;28;20218;-67
2023/02/12 09:38:43;;;;;;;17.00;5.57;;;;;;;9.34;89.46;103238.81;4996671;28;20199;-66
2023/02/12 09:41:46;;;;;;;11.53;6.20;;;;;;;8.94;91.26;103242.34;5010293;28;20214;-66
2023/02/12 09:44:22;;;;;;;12.83;5.07;;;;;;;9.14;91.22;103237.88;4992235;28;20416;-67
2023/02/12 09:46:59;;;;;;;16.63;8.05;;;;;;;8.85;91.54;103243.16;5010074;28;20450;-65
2023/02/12 09:49:56;;;;;;;15.50;5.73;;;;;;;8.90;92.11;103245.44;5006333;28;20190;-69
2023/02/12 09:52:28;;;;;;;12.95;5.90;;;;;;;8.85;92.57;103243.16;5022122;28;20462;-70
2023/02/12 09:55:00;;;;;;;11.10;6.05;;;;;;;8.69;93.62;103248.16;5012127;28;20315;-68
2023/02/12 09:57:34;;;;;;;20.45;5.88;;;;;;;8.82;93.32;103253.34;4983430;28;20246;-68
2023/02/12 10:00:08;;;;;;;16.53;7.33;;;;;;;8.75;93.79;103246.78;5014753;28;20221;-69
2023/02/12 10:02:39;;;;;;;17.63;10.60;;;;;;;8.73;93.93;103245.06;5000798;28;20442;-70
2023/02/12 10:05:18;;;;;;;19.38;9.40;;;;;;;8.85;94.34;103245.84;4985802;28;20218;-69
2023/02/12 10:08:00;;;;;;;17.63;9.85;;;;;;;8.89;94.03;103249.97;4979518;28;20242;-69
2023/02/12 10:10:48;;;;;;;18.92;8.70;;;;;;;9.09;93.62;103243.69;4993507;28;20202;-69
2023/02/12 10:13:31;;;;;;;17.85;7.70;;;;;;;9.33;92.44;103247.91;5022548;28;20592;-69
2023/02/12 10:16:13;;;;;;;18.92;6.60;;;;;;;9.45;90.86;103238.66;5012258;28;20218;-69
2023/02/12 10:19:13;;;;;;;21.47;8.80;;;;;;;9.37;91.50;103243.91;5013674;28;20286;-70
2023/02/12 10:21:55;;;;;;;15.52;7.00;;;;;;;9.16;91.88;103236.72;4983038;28;20428;-68
2023/02/12 10:24:46;;;;;;;16.07;7.10;;;;;;;9.18;92.71;103238.44;4974214;28;20628;-69
2023/02/12 10:27:25;;;;;;;16.83;6.20;;;;;;;8.80;94.21;103237.28;5016054;28;22430;-69
2023/02/12 10:29:57;;;;;;;17.08;6.65;;;;;;;8.84;95.77;103241.44;5002049;28;20472;-68
2023/02/12 10:32:33;;;;;;;12.77;7.00;;;;;;;8.74;96.52;103240.50;5002762;28;20205;-68
2023/02/12 10:35:12;;;;;;;17.05;6.32;;;;;;;8.94;96.38;103234.22;5010556;28;20831;-69
2023/02/12 10:37:49;;;;;;;16.88;8.57;;;;;;;8.86;96.96;103244.81;4983980;28;20214;-69
2023/02/12 10:40:23;;;;;;;16.65;8.50;;;;;;;8.92;97.61;103246.13;5010531;28;20683;-69
2023/02/12 10:42:56;;;;;;;12.73;7.55;;;;;;;8.99;97.77;103240.09;4980346;28;20198;-69
2023/02/12 10:45:30;;;;;;;21.00;10.43;;;;;;;9.06;97.72;103245.78;5007862;28;20750;-70
2023/02/12 10:48:10;;;;;;;12.77;7.97;;;;;;;8.85;98.93;103248.53;4976339;28;20202;-70
2023/02/12 10:50:50;;;;;;;16.52;9.10;;;;;;;8.75;99.21;103258.44;5010642;28;20451;-69
2023/02/12 10:53:22;;;;;;;22.77;12.18;;;;;;;8.75;100.00;103250.34;4978925;28;20503;-67
2023/02/12 10:56:16;;;;;;;16.20;8.10;;;;;;;8.71;100.00;103248.88;5019932;28;20233;-68
2023/02/12 10:58:56;;;;;;;15.52;8.15;;;;;;;8.62;100.00;103244.25;5006752;28;20297;-69
2023/02/12 11:01:33;;;;;;;13.00;6.65;;;;;;;8.70;100.00;103244.47;5007412;28;20194;-70
2023/02/12 11:04:24;;;;;;;23.20;8.75;;;;;;;8.78;100.00;103238.38;5009727;28;20210;-68
2023/02/12 11:06:59;;;;;;;22.05;8.85;;;;;;;8.54;100.00;103238.69;4977067;28;20218;-68
2023/02/12 11:10:25;;;;;;;17.70;7.90;;;;;;;8.49;100.00;103235.50;4984419;28;20688;-68
2023/02/12 11:12:57;;;;;;;17.80;9.15;;;;;;;8.55;100.00;103240.41;5010052;28;20191;-70
2023/02/12 11:15:31;;;;;;;21.05;8.75;;;;;;;8.57;100.00;103243.78;4993290;28;20672;-69
2023/02/12 11:18:02;;;;;;;10.50;7.13;;;;;;;8.39;100.00;103240.00;4992022;28;20190;-69
2023/02/12 11:20:38;;;;;;;15.82;7.90;;;;;;;8.29;100.00;103240.78;5020706;28;20739;-68
2023/02/12 11:23:25;;;;;;;10.95;6.95;;;;;;;8.20;100.00;103240.66;5012696;28;20557;-69
2023/02/12 11:25:59;;;;;;;16.42;6.85;;;;;;;8.26;100.00;103246.41;4999633;28;20233;-69
2023/02/12 11:28:30;;;;;;;23.05;8.45;;;;;;;8.16;100.00;103234.69;5015062;28;20208;-70
2023/02/12 11:31:03;;;;;;;18.48;7.78;;;;;;;8.27;100.00;103231.94;5012998;28;20296;-70
2023/02/12 11:33:34;;;;;;;13.68;7.93;;;;;;;8.38;100.00;103238.28;5012559;28;20206;-68
2023/02/12 11:36:14;;;;;;;13.30;7.40;;;;;;;8.75;98.62;103242.22;5009406;28;20685;-69
2023/02/12 11:38:53;;;;;;;17.37;6.80;;;;;;;8.89;97.64;103238.31;5002970;28;20202;-69
2023/02/12 11:41:33;;;;;;;18.50;7.30;;;;;;;8.51;97.59;103236.25;5015657;28;20446;-68
2023/02/12 11:44:10;;;;;;;10.45;5.15;;;;;;;8.52;96.88;103232.56;5007951;28;20194;-70
2023/02/12 11:46:48;;;;;;;14.63;5.97;;;;;;;8.51;99.25;103236.25;5009660;28;20288;-69
2023/02/12 11:49:23;;;;;;;10.90;7.15;;;;;;;8.67;98.91;103228.53;4988701;28;20198;-68
2023/02/12 11:51:54;;;;;;;11.00;5.50;;;;;;;8.61;97.90;103229.06;5016137;28;20682;-70
2023/02/12 11:54:26;;;;;;;11.40;7.22;;;;;;;8.77;97.59;103229.44;5014714;28;20711;-69